createdAt,value
2017-10-07T00:01:36.367Z,2.30
2017-10-07T00:04:03.835Z,2.17
2017-10-07T00:06:31.287Z,1.57
2017-10-07T00:08:58.755Z,1.30
2017-10-07T00:11:26.188Z,1.73
2017-10-07T00:13:53.659Z,1.90
2017-10-07T00:16:21.112Z,1.70
2017-10-07T00:18:48.565Z,1.63
2017-10-07T00:21:16.031Z,2.27
2017-10-07T00:23:43.513Z,1.77
2017-10-07T00:26:10.950Z,2.23
2017-10-07T00:28:38.418Z,2.40
2017-10-07T00:31:05.871Z,2.23
2017-10-07T00:33:33.326Z,1.43
2017-10-07T00:36:00.857Z,1.77
2017-10-07T00:38:28.348Z,1.50
2017-10-07T00:40:55.790Z,1.53
2017-10-07T00:43:23.336Z,1.80
2017-10-07T00:45:50.782Z,1.67
2017-10-07T00:48:18.233Z,1.63
2017-10-07T00:50:45.678Z,1.67
2017-10-07T00:53:13.170Z,2.20
2017-10-07T00:55:40.637Z,1.50
2017-10-07T00:58:08.172Z,1.67
2017-10-07T01:00:35.653Z,1.60
2017-10-07T01:03:03.137Z,1.57
2017-10-07T01:05:30.621Z,1.40
2017-10-07T01:07:58.088Z,1.03
2017-10-07T01:10:25.703Z,1.60
2017-10-07T01:12:53.232Z,1.40
2017-10-07T01:15:20.796Z,1.77
2017-10-07T01:17:48.273Z,1.60
2017-10-07T01:20:15.757Z,1.63
2017-10-07T01:22:43.223Z,1.73
2017-10-07T01:25:10.725Z,1.10
2017-10-07T01:27:38.198Z,1.23
2017-10-07T01:30:05.681Z,1.47
2017-10-07T01:32:33.156Z,1.43
2017-10-07T01:35:00.637Z,1.27
2017-10-07T01:37:28.097Z,1.90
2017-10-07T01:39:55.581Z,1.90
2017-10-07T01:42:23.125Z,1.60
2017-10-07T01:44:50.624Z,1.50
2017-10-07T01:47:18.083Z,1.67
2017-10-07T01:49:45.577Z,1.30
2017-10-07T01:52:13.041Z,1.27
2017-10-07T01:54:40.521Z,1.30
2017-10-07T01:57:07.981Z,1.57
2017-10-07T01:59:37.155Z,1.37
2017-10-07T02:02:04.621Z,1.23
2017-10-07T02:04:32.105Z,1.20
2017-10-07T02:06:59.566Z,1.60
2017-10-07T02:09:27.099Z,1.70
2017-10-07T02:11:54.661Z,1.30
2017-10-07T02:14:22.141Z,1.67
2017-10-07T02:16:49.609Z,0.87
2017-10-07T02:19:17.077Z,1.27
2017-10-07T02:21:44.585Z,1.37
2017-10-07T02:24:12.117Z,1.43
2017-10-07T02:26:39.596Z,0.90
2017-10-07T02:29:07.057Z,1.10
2017-10-07T02:31:34.634Z,1.93
2017-10-07T02:34:02.098Z,1.10
2017-10-07T02:36:29.629Z,1.57
2017-10-07T02:38:57.093Z,0.83
2017-10-07T02:41:24.573Z,1.13
2017-10-07T02:43:52.032Z,1.90
2017-10-07T02:46:19.553Z,1.33
2017-10-07T02:48:47.029Z,1.00
2017-10-07T02:51:14.541Z,2.20
2017-10-07T02:53:42.033Z,1.30
2017-10-07T02:56:09.509Z,1.30
2017-10-07T02:58:36.964Z,1.40
2017-10-07T03:01:04.449Z,1.20
2017-10-07T03:03:31.956Z,1.90
2017-10-07T03:05:59.440Z,1.43
2017-10-07T03:08:26.897Z,1.10
2017-10-07T03:10:54.376Z,1.40
2017-10-07T03:13:21.858Z,1.40
2017-10-07T03:15:49.342Z,1.70
2017-10-07T03:18:16.803Z,1.60
2017-10-07T03:20:44.357Z,1.13
2017-10-07T03:23:11.820Z,1.27
2017-10-07T03:25:39.376Z,1.10
2017-10-07T03:28:06.929Z,1.57
2017-10-07T03:30:34.441Z,0.93
2017-10-07T03:33:01.912Z,0.80
2017-10-07T03:35:29.403Z,1.50
2017-10-07T03:37:56.898Z,1.50
2017-10-07T03:40:24.415Z,1.30
2017-10-07T03:42:51.904Z,1.57
2017-10-07T03:45:19.373Z,1.70
2017-10-07T03:47:46.892Z,1.43
2017-10-07T03:50:14.445Z,2.30
2017-10-07T03:52:42.002Z,1.20
2017-10-07T03:55:09.464Z,1.37
2017-10-07T03:57:37.021Z,1.70
2017-10-07T04:00:04.591Z,1.33
2017-10-07T04:02:32.074Z,2.20
2017-10-07T04:04:59.534Z,1.00
2017-10-07T04:07:27.041Z,1.57
2017-10-07T04:09:54.506Z,1.60
2017-10-07T04:12:22.074Z,1.87
2017-10-07T04:14:49.549Z,1.67
2017-10-07T04:17:17.031Z,1.10
2017-10-07T04:19:44.501Z,2.20
2017-10-07T04:22:11.992Z,2.00
2017-10-07T04:24:39.484Z,1.33
2017-10-07T04:27:06.989Z,1.30
2017-10-07T04:29:34.473Z,1.50
2017-10-07T04:32:01.941Z,1.17
2017-10-07T04:34:29.489Z,1.50
2017-10-07T04:36:56.945Z,1.33
2017-10-07T04:39:24.457Z,1.27
2017-10-07T04:41:51.946Z,1.50
2017-10-07T04:44:19.420Z,1.73
2017-10-07T04:46:46.881Z,2.37
2017-10-07T04:49:14.365Z,1.53
2017-10-07T04:51:41.825Z,1.63
2017-10-07T04:54:09.310Z,1.70
2017-10-07T04:56:36.771Z,1.50
2017-10-07T04:59:04.245Z,1.67
2017-10-07T05:01:31.704Z,1.20
2017-10-07T05:03:59.192Z,1.80
2017-10-07T05:06:26.717Z,1.40
2017-10-07T05:08:54.192Z,1.80
2017-10-07T05:11:21.656Z,1.63
2017-10-07T05:13:49.141Z,1.50
2017-10-07T05:16:16.601Z,1.57
2017-10-07T05:18:44.090Z,1.73
2017-10-07T05:21:11.558Z,1.63
2017-10-07T05:23:39.125Z,2.80
2017-10-07T05:26:06.681Z,1.80
2017-10-07T05:28:34.157Z,1.70
2017-10-07T05:31:01.641Z,2.37
2017-10-07T05:33:29.157Z,1.83
2017-10-07T05:35:56.613Z,2.30
2017-10-07T05:38:24.093Z,2.03
2017-10-07T05:40:51.549Z,2.60
2017-10-07T05:43:19.082Z,1.80
2017-10-07T05:45:46.549Z,1.90
2017-10-07T05:48:14.102Z,1.80
2017-10-07T05:50:41.581Z,2.63
2017-10-07T05:53:09.113Z,3.30
2017-10-07T05:55:36.614Z,1.93
2017-10-07T05:58:04.081Z,2.80
2017-10-07T06:00:31.564Z,3.33
2017-10-07T06:02:59.030Z,3.37
2017-10-07T06:05:26.510Z,2.63
2017-10-07T06:07:54.061Z,3.73
2017-10-07T06:10:21.551Z,3.17
2017-10-07T06:12:49.423Z,4.03
2017-10-07T06:15:16.948Z,3.27
2017-10-07T06:17:44.501Z,4.07
2017-10-07T06:20:11.985Z,3.87
2017-10-07T06:22:39.437Z,4.73
2017-10-07T06:25:06.912Z,3.40
2017-10-07T06:27:34.375Z,4.43
2017-10-07T06:30:01.885Z,4.10
2017-10-07T06:32:29.743Z,3.97
2017-10-07T06:34:57.309Z,4.73
2017-10-07T06:37:24.773Z,5.00
2017-10-07T06:39:52.271Z,4.43
2017-10-07T06:42:19.730Z,4.17
2017-10-07T06:44:47.233Z,5.03
2017-10-07T06:47:14.692Z,4.60
2017-10-07T06:49:42.253Z,4.47
2017-10-07T06:52:09.718Z,4.20
2017-10-07T06:54:37.176Z,4.90
2017-10-07T06:57:04.734Z,5.10
2017-10-07T06:59:32.184Z,5.60
2017-10-07T07:01:59.665Z,4.60
2017-10-07T07:04:27.129Z,5.50
2017-10-07T07:06:54.657Z,6.00
2017-10-07T07:09:22.204Z,5.60
2017-10-07T07:11:49.773Z,4.37
2017-10-07T07:14:17.260Z,6.40
2017-10-07T07:16:44.805Z,4.83
2017-10-07T07:19:12.278Z,6.13
2017-10-07T07:21:39.767Z,5.60
2017-10-07T07:24:07.277Z,6.57
2017-10-07T07:26:34.761Z,5.90
2017-10-07T07:29:02.217Z,5.57
2017-10-07T07:31:29.718Z,5.87
2017-10-07T07:33:57.176Z,4.00
2017-10-07T07:36:24.677Z,4.80
2017-10-07T07:38:52.153Z,4.70
2017-10-07T07:41:19.652Z,4.80
2017-10-07T07:43:47.220Z,5.17
2017-10-07T07:46:14.705Z,5.30
2017-10-07T07:48:42.187Z,4.70
2017-10-07T07:51:09.682Z,4.93
2017-10-07T07:53:37.155Z,5.13
2017-10-07T07:56:04.673Z,4.87
2017-10-07T07:58:32.136Z,4.97
2017-10-07T08:00:59.617Z,4.13
2017-10-07T08:03:27.080Z,4.27
2017-10-07T08:05:54.630Z,4.40
2017-10-07T08:08:22.186Z,4.07
2017-10-07T08:10:49.998Z,3.47
2017-10-07T08:13:17.513Z,3.37
2017-10-07T08:15:44.997Z,3.83
2017-10-07T08:18:12.462Z,4.00
2017-10-07T08:20:39.994Z,4.63
2017-10-07T08:23:07.493Z,4.60
2017-10-07T08:25:34.953Z,4.37
2017-10-07T08:28:02.458Z,5.20
2017-10-07T08:30:29.933Z,6.20
2017-10-07T08:32:57.416Z,5.77
2017-10-07T08:35:24.881Z,5.10
2017-10-07T08:37:52.378Z,7.00
2017-10-07T08:40:19.837Z,5.37
2017-10-07T08:42:47.329Z,5.57
2017-10-07T08:45:14.806Z,5.73
2017-10-07T08:47:42.334Z,4.30
2017-10-07T08:50:09.797Z,5.90
2017-10-07T08:52:37.313Z,5.70
2017-10-07T08:55:04.780Z,5.00
2017-10-07T08:57:32.265Z,5.80
2017-10-07T08:59:59.729Z,6.87
2017-10-07T09:02:27.216Z,6.97
2017-10-07T09:04:55.182Z,7.60
2017-10-07T09:07:22.660Z,6.37
2017-10-07T09:09:50.132Z,5.67
2017-10-07T09:12:17.612Z,4.93
2017-10-07T09:14:45.113Z,4.60
2017-10-07T09:17:12.600Z,4.33
2017-10-07T09:19:40.058Z,4.00
2017-10-07T09:22:07.559Z,6.17
2017-10-07T09:24:35.026Z,4.70
2017-10-07T09:27:02.493Z,4.97
2017-10-07T09:29:29.993Z,4.30
2017-10-07T09:31:57.457Z,4.50
2017-10-07T09:34:25.029Z,4.33
2017-10-07T09:36:52.500Z,3.70
2017-10-07T09:39:20.032Z,4.20
2017-10-07T09:41:47.489Z,3.67
2017-10-07T09:44:14.985Z,3.60
2017-10-07T09:46:42.441Z,2.97
2017-10-07T09:49:09.926Z,2.40
2017-10-07T09:51:37.404Z,2.20
2017-10-07T09:54:04.899Z,3.03
2017-10-07T09:56:32.369Z,3.60
2017-10-07T09:58:59.877Z,3.70
2017-10-07T10:01:27.346Z,3.13
2017-10-07T10:03:54.841Z,2.43
2017-10-07T10:06:22.306Z,2.60
2017-10-07T10:08:49.799Z,2.97
2017-10-07T10:11:17.303Z,2.87
2017-10-07T10:13:44.762Z,2.70
2017-10-07T10:16:12.253Z,3.77
2017-10-07T10:18:39.713Z,2.73
2017-10-07T10:21:07.219Z,2.40
2017-10-07T10:23:34.674Z,2.30
2017-10-07T10:26:02.161Z,2.47
2017-10-07T10:28:29.616Z,2.30
2017-10-07T10:30:57.135Z,2.20
2017-10-07T10:33:24.609Z,1.73
2017-10-07T10:35:52.092Z,2.73
2017-10-07T10:38:19.592Z,2.13
2017-10-07T10:40:47.072Z,1.80
2017-10-07T10:43:14.546Z,2.00
2017-10-07T10:45:42.035Z,2.40
2017-10-07T10:48:09.520Z,1.80
2017-10-07T10:50:37.005Z,2.13
2017-10-07T10:53:04.545Z,2.50
2017-10-07T10:55:32.057Z,2.40
2017-10-07T10:57:59.517Z,2.50
2017-10-07T11:00:27.000Z,2.43
2017-10-07T11:02:54.475Z,2.00
2017-10-07T11:05:21.957Z,2.53
2017-10-07T11:07:49.428Z,1.43
2017-10-07T11:10:16.929Z,2.23
2017-10-07T11:12:44.393Z,2.10
2017-10-07T11:15:11.969Z,2.00
2017-10-07T11:17:39.509Z,2.20
2017-10-07T11:20:07.091Z,2.57
2017-10-07T11:22:34.580Z,2.40
2017-10-07T11:25:02.049Z,2.20
2017-10-07T11:27:29.545Z,2.57
2017-10-07T11:29:57.105Z,2.27
2017-10-07T11:32:24.705Z,2.50
2017-10-07T11:34:52.223Z,1.80
2017-10-07T11:37:19.709Z,2.17
2017-10-07T11:39:47.241Z,1.50
2017-10-07T11:42:14.797Z,1.37
2017-10-07T11:44:42.357Z,2.80
2017-10-07T11:47:09.847Z,1.80
2017-10-07T11:49:37.369Z,1.33
2017-10-07T11:52:04.852Z,1.17
2017-10-07T11:54:32.329Z,1.30
2017-10-07T11:56:59.810Z,2.40
2017-10-07T11:59:27.301Z,2.17
2017-10-07T12:01:54.781Z,1.77
2017-10-07T12:04:22.266Z,1.53
2017-10-07T12:06:49.772Z,1.93
2017-10-07T12:09:17.242Z,1.70
2017-10-07T12:11:44.782Z,2.00
2017-10-07T12:14:12.253Z,1.83
2017-10-07T12:16:39.800Z,2.00
2017-10-07T12:19:07.382Z,2.60
2017-10-07T12:21:34.860Z,1.37
2017-10-07T12:24:02.368Z,1.40
2017-10-07T12:26:29.833Z,1.50
2017-10-07T12:28:57.323Z,1.80
2017-10-07T12:31:24.784Z,2.23
2017-10-07T12:33:52.290Z,1.70
2017-10-07T12:36:19.755Z,1.80
2017-10-07T12:38:47.253Z,1.30
2017-10-07T12:41:14.717Z,1.63
2017-10-07T12:43:42.233Z,2.03
2017-10-07T12:46:09.752Z,1.60
2017-10-07T12:48:37.236Z,1.53
2017-10-07T12:51:04.717Z,1.23
2017-10-07T12:53:32.210Z,1.57
2017-10-07T12:55:59.717Z,1.80
2017-10-07T12:58:27.201Z,1.43
2017-10-07T13:00:54.733Z,1.47
2017-10-07T13:03:22.293Z,1.43
2017-10-07T13:05:49.751Z,1.20
2017-10-07T13:08:17.258Z,1.00
2017-10-07T13:10:44.721Z,1.00
2017-10-07T13:13:12.200Z,1.60
2017-10-07T13:15:39.696Z,1.43
2017-10-07T13:18:07.239Z,1.50
2017-10-07T13:20:34.701Z,1.80
2017-10-07T13:23:02.182Z,1.53
2017-10-07T13:25:29.721Z,2.00
2017-10-07T13:27:57.226Z,0.93
2017-10-07T13:30:24.693Z,1.03
2017-10-07T13:32:52.277Z,1.60
2017-10-07T13:35:19.732Z,1.33
2017-10-07T13:37:47.294Z,1.33
2017-10-07T13:40:14.853Z,1.43
2017-10-07T13:42:42.434Z,1.13
2017-10-07T13:45:09.970Z,1.40
2017-10-07T13:47:37.533Z,1.10
2017-10-07T13:50:05.018Z,1.07
2017-10-07T13:52:32.544Z,1.30
2017-10-07T13:55:00.025Z,0.77
2017-10-07T13:57:27.485Z,1.17
2017-10-07T13:59:54.981Z,1.40
2017-10-07T14:02:22.441Z,1.07
2017-10-07T14:04:50.078Z,0.97
2017-10-07T14:07:17.546Z,1.90
2017-10-07T14:09:45.054Z,1.43
2017-10-07T14:12:12.529Z,1.33
2017-10-07T14:14:40.013Z,1.33
2017-10-07T14:17:07.521Z,1.70
2017-10-07T14:19:35.024Z,1.27
2017-10-07T14:22:02.485Z,1.37
2017-10-07T14:24:29.989Z,0.90
2017-10-07T14:26:57.450Z,0.87
2017-10-07T14:29:25.030Z,0.83
2017-10-07T14:31:52.488Z,1.60
2017-10-07T14:34:20.017Z,1.10
2017-10-07T14:36:47.517Z,1.07
2017-10-07T14:39:14.998Z,1.00
2017-10-07T14:41:42.498Z,1.13
2017-10-07T14:44:09.977Z,1.17
2017-10-07T14:46:37.438Z,0.87
2017-10-07T14:49:04.969Z,0.77
2017-10-07T14:51:32.450Z,1.10
2017-10-07T14:53:59.936Z,1.20
2017-10-07T14:56:27.397Z,1.80
2017-10-07T14:58:54.852Z,1.30
2017-10-07T15:01:22.338Z,1.57
2017-10-07T15:03:49.800Z,1.13
2017-10-07T15:06:17.396Z,1.17
2017-10-07T15:08:44.868Z,1.33
2017-10-07T15:11:12.357Z,1.43
2017-10-07T15:13:39.828Z,0.90
2017-10-07T15:16:07.321Z,0.90
2017-10-07T15:18:34.781Z,0.87
2017-10-07T15:21:02.354Z,1.53
2017-10-07T15:23:29.865Z,1.50
2017-10-07T15:25:57.355Z,1.40
2017-10-07T15:28:24.815Z,1.03
2017-10-07T15:30:52.385Z,1.17
2017-10-07T15:33:19.897Z,2.13
2017-10-07T15:35:47.377Z,0.90
2017-10-07T15:38:14.841Z,1.87
2017-10-07T15:40:42.327Z,1.00
2017-10-07T15:43:09.789Z,0.97
2017-10-07T15:45:37.281Z,1.40
2017-10-07T15:48:04.737Z,1.40
2017-10-07T15:50:32.216Z,1.03
2017-10-07T15:53:00.463Z,1.00
2017-10-07T15:55:28.033Z,0.80
2017-10-07T15:57:55.509Z,1.47
2017-10-07T16:00:22.998Z,0.80
2017-10-07T16:02:50.507Z,1.17
2017-10-07T16:05:17.992Z,1.20
2017-10-07T16:07:45.472Z,0.70
2017-10-07T16:10:12.929Z,1.53
2017-10-07T16:12:40.409Z,1.13
2017-10-07T16:15:07.909Z,1.03
2017-10-07T16:17:35.397Z,1.00
2017-10-07T16:20:02.901Z,0.83
2017-10-07T16:22:30.388Z,1.30
2017-10-07T16:24:57.916Z,1.30
2017-10-07T16:27:25.494Z,1.20
2017-10-07T16:29:53.032Z,1.40
2017-10-07T16:32:20.529Z,1.07
2017-10-07T16:34:48.053Z,0.90
2017-10-07T16:37:15.611Z,0.90
2017-10-07T16:39:43.072Z,0.63
2017-10-07T16:42:10.552Z,1.13
2017-10-07T16:44:38.018Z,2.93
2017-10-07T16:47:05.497Z,3.40
2017-10-07T16:49:32.998Z,1.20
2017-10-07T16:52:00.480Z,1.67
2017-10-07T16:54:27.963Z,2.67
2017-10-07T16:56:55.450Z,2.53
2017-10-07T16:59:22.938Z,1.00
2017-10-07T17:01:50.432Z,1.07
2017-10-07T17:04:17.889Z,1.30
2017-10-07T17:06:45.386Z,1.20
2017-10-07T17:09:12.853Z,0.90
2017-10-07T17:11:40.357Z,1.20
2017-10-07T17:14:07.845Z,1.03
2017-10-07T17:16:35.343Z,0.70
2017-10-07T17:19:02.898Z,0.90
2017-10-07T17:21:30.418Z,1.13
2017-10-07T17:23:57.877Z,1.03
2017-10-07T17:26:25.364Z,1.07
2017-10-07T17:28:52.839Z,0.80
2017-10-07T17:31:20.325Z,0.93
2017-10-07T17:33:47.840Z,0.93
2017-10-07T17:36:15.321Z,0.87
2017-10-07T17:38:42.777Z,0.90
2017-10-07T17:41:10.269Z,1.20
2017-10-07T17:43:37.765Z,0.80
2017-10-07T17:46:05.309Z,1.17
2017-10-07T17:48:32.769Z,1.30
2017-10-07T17:51:00.229Z,1.00
2017-10-07T17:53:27.781Z,1.10
2017-10-07T17:55:55.474Z,1.20
2017-10-07T17:58:22.959Z,0.70
2017-10-07T18:00:50.477Z,2.00
2017-10-07T18:03:18.017Z,1.13
2017-10-07T18:05:45.485Z,0.73
2017-10-07T18:08:12.965Z,1.43
2017-10-07T18:10:40.517Z,0.80
2017-10-07T18:13:07.996Z,0.90
2017-10-07T18:15:35.460Z,1.33
2017-10-07T18:18:02.961Z,1.27
2017-10-07T18:20:30.443Z,1.17
2017-10-07T18:22:57.984Z,1.30
2017-10-07T18:25:25.442Z,1.47
2017-10-07T18:27:53.005Z,1.20
2017-10-07T18:30:20.467Z,1.10
2017-10-07T18:32:47.953Z,1.20
2017-10-07T18:35:15.488Z,1.37
2017-10-07T18:37:42.980Z,2.23
2017-10-07T18:40:10.437Z,0.67
2017-10-07T18:42:37.894Z,0.70
2017-10-07T18:45:05.379Z,1.17
2017-10-07T18:47:32.845Z,0.80
2017-10-07T18:50:00.341Z,0.70
2017-10-07T18:52:27.865Z,0.80
2017-10-07T18:54:55.941Z,1.00
2017-10-07T18:57:23.492Z,0.90
2017-10-07T18:59:50.997Z,0.80
2017-10-07T19:02:18.525Z,0.87
2017-10-07T19:04:46.010Z,1.10
2017-10-07T19:07:13.473Z,0.70
2017-10-07T19:09:40.953Z,0.73
2017-10-07T19:12:08.445Z,1.17
2017-10-07T19:14:35.925Z,0.87
2017-10-07T19:17:03.392Z,0.90
2017-10-07T19:19:30.913Z,0.70
2017-10-07T19:21:58.472Z,1.20
2017-10-07T19:24:26.033Z,1.03
2017-10-07T19:26:53.508Z,1.23
2017-10-07T19:29:20.988Z,1.10
2017-10-07T19:31:48.558Z,0.97
2017-10-07T19:34:16.068Z,0.60
2017-10-07T19:36:43.621Z,0.80
2017-10-07T19:39:11.195Z,1.33
2017-10-07T19:41:38.653Z,0.70
2017-10-07T19:44:06.145Z,0.77
2017-10-07T19:46:33.672Z,1.40
2017-10-07T19:49:01.165Z,0.90
2017-10-07T19:51:28.629Z,1.20
2017-10-07T19:53:56.101Z,1.00
2017-10-07T19:56:23.580Z,0.80
2017-10-07T19:58:51.132Z,1.23
2017-10-07T20:01:18.617Z,0.93
2017-10-07T20:03:46.149Z,0.97
2017-10-07T20:06:13.641Z,0.90
2017-10-07T20:08:41.169Z,1.50
2017-10-07T20:11:08.725Z,1.40
2017-10-07T20:13:36.181Z,1.40
2017-10-07T20:16:03.673Z,1.47
2017-10-07T20:18:31.142Z,0.70
2017-10-07T20:20:58.673Z,0.80
2017-10-07T20:23:26.133Z,0.80
2017-10-07T20:25:53.640Z,0.70
2017-10-07T20:28:21.149Z,0.70
2017-10-07T20:30:48.632Z,1.43
2017-10-07T20:33:16.102Z,1.00
2017-10-07T20:35:44.424Z,1.07
2017-10-07T20:38:11.981Z,0.70
2017-10-07T20:40:39.465Z,1.00
2017-10-07T20:43:06.920Z,1.10
2017-10-07T20:45:34.445Z,1.03
2017-10-07T20:48:01.933Z,1.50
2017-10-07T20:50:29.388Z,1.20
2017-10-07T20:52:56.940Z,1.10
2017-10-07T20:55:24.481Z,1.20
2017-10-07T20:57:51.968Z,1.30
2017-10-07T21:00:19.434Z,1.30
2017-10-07T21:02:47.341Z,1.27
2017-10-07T21:05:14.818Z,1.30
2017-10-07T21:07:42.383Z,1.10
2017-10-07T21:10:12.653Z,0.97
2017-10-07T21:12:40.176Z,1.03
2017-10-07T21:15:07.645Z,0.83
2017-10-07T21:20:12.823Z,0.80
2017-10-07T21:22:40.429Z,1.13
2017-10-07T21:25:07.885Z,1.23
2017-10-07T21:27:35.365Z,1.37
2017-10-07T21:30:02.910Z,1.20
2017-10-07T21:32:30.397Z,1.10
2017-10-07T21:34:57.873Z,0.90
2017-10-07T21:37:25.415Z,1.17
2017-10-07T21:39:52.874Z,1.00
2017-10-07T21:42:20.365Z,0.70
2017-10-07T21:44:47.821Z,0.90
2017-10-07T21:47:15.320Z,1.03
2017-10-07T21:49:42.861Z,1.10
2017-10-07T21:52:10.422Z,0.90
2017-10-07T21:54:37.906Z,1.00
2017-10-07T21:57:05.371Z,1.30
2017-10-07T21:59:32.861Z,0.90
2017-10-07T22:02:00.317Z,0.80
2017-10-07T22:04:27.796Z,1.43
2017-10-07T22:06:55.301Z,0.63
2017-10-07T22:09:22.789Z,1.10
2017-10-07T22:11:50.248Z,1.00
2017-10-07T22:14:17.733Z,1.03
2017-10-07T22:16:45.211Z,0.90
2017-10-07T22:19:12.698Z,1.30
2017-10-07T22:21:40.160Z,1.27
2017-10-07T22:24:07.760Z,1.00
2017-10-07T22:26:35.277Z,0.90
2017-10-07T22:29:02.777Z,0.67
2017-10-07T22:31:30.261Z,1.00
2017-10-07T22:33:57.720Z,1.07
2017-10-07T22:36:25.201Z,0.83
2017-10-07T22:38:52.747Z,0.60
2017-10-07T22:41:20.233Z,0.60
2017-10-07T22:43:47.723Z,0.60
2017-10-07T22:46:15.282Z,1.63
2017-10-07T22:48:42.767Z,1.10
2017-10-07T22:51:10.262Z,0.60
2017-10-07T22:53:37.745Z,0.73
2017-10-07T22:56:05.233Z,0.60
2017-10-07T22:58:32.809Z,0.53
2017-10-07T23:01:00.305Z,0.50
2017-10-07T23:03:27.805Z,0.60
2017-10-07T23:05:55.290Z,0.57
2017-10-07T23:08:22.792Z,0.63
2017-10-07T23:10:50.248Z,0.60
2017-10-07T23:13:17.729Z,0.60
2017-10-07T23:15:45.196Z,0.57
2017-10-07T23:18:12.693Z,0.53
2017-10-07T23:20:40.153Z,0.50
2017-10-07T23:23:07.648Z,0.50
2017-10-07T23:25:35.104Z,0.47
2017-10-07T23:28:02.586Z,0.50
2017-10-07T23:30:30.048Z,0.70
2017-10-07T23:32:57.530Z,0.40
2017-10-07T23:35:25.026Z,0.57
2017-10-07T23:37:52.598Z,0.70
2017-10-07T23:40:20.060Z,0.73
2017-10-07T23:42:47.593Z,0.50
2017-10-07T23:45:15.057Z,0.60
2017-10-07T23:47:42.540Z,0.47
2017-10-07T23:50:09.997Z,0.60
2017-10-07T23:52:37.463Z,0.50
2017-10-07T23:55:04.977Z,0.50
2017-10-07T23:57:32.538Z,0.50
